Time;durP1;ratioP1;P1;durP2;ratioP2;P2;SDS_P1;SDS_P2;PMS_P1;PMS_P2;Temp;Humidity;BMP_temperature;BMP_pressure;BME280_temperature;BME280_humidity;BME280_pressure;Samples;Min_cycle;Max_cycle;Signal;HPM_P1;HPM_P2
2021/05/14 00:00:24;;;;;;;1.40;0.93;;;;;;;;;;4937857;29;20421;-72
2021/05/14 00:05:54;;;;;;;2.00;1.00;;;;;;;;;;4937381;29;20473;-72
2021/05/14 00:08:19;;;;;;;0.93;0.80;;;;;;;;;;4937590;29;20417;-72
2021/05/14 00:10:46;;;;;;;0.70;0.70;;;;;;;;;;4937447;29;20810;-72
2021/05/14 00:13:12;;;;;;;2.03;0.90;;;;;;;;;;4936758;29;20999;-72
2021/05/14 00:15:39;;;;;;;1.37;1.07;;;;;;;;;;4937525;29;20420;-71
2021/05/14 00:18:05;;;;;;;1.10;1.00;;;;;;;;;;4937295;29;20440;-71
2021/05/14 00:20:31;;;;;;;0.90;0.80;;;;;;;;;;4937044;29;20424;-72
2021/05/14 00:22:57;;;;;;;1.30;0.97;;;;;;;;;;4937200;29;20413;-72
2021/05/14 00:25:23;;;;;;;2.83;1.40;;;;;;;;;;4936424;29;20446;-73
2021/05/14 00:27:49;;;;;;;2.20;1.20;;;;;;;;;;4937353;29;20570;-72
2021/05/14 00:30:15;;;;;;;1.23;1.00;;;;;;;;;;4937064;29;20465;-72
2021/05/14 00:35:44;;;;;;;2.07;1.87;;;;;;;;;;4936967;29;20434;-73
2021/05/14 00:38:10;;;;;;;2.00;1.10;;;;;;;;;;4936753;29;20889;-73
2021/05/14 00:40:36;;;;;;;1.30;1.20;;;;;;;;;;4936428;29;20779;-72
2021/05/14 00:43:02;;;;;;;1.40;1.10;;;;;;;;;;4935412;29;20435;-73
2021/05/14 00:45:28;;;;;;;1.10;0.90;;;;;;;;;;4936792;29;20421;-72
2021/05/14 00:50:58;;;;;;;1.83;0.80;;;;;;;;;;4936597;29;20766;-72
2021/05/14 00:53:24;;;;;;;1.13;0.90;;;;;;;;;;4936510;29;20456;-72
2021/05/14 00:55:50;;;;;;;2.07;1.00;;;;;;;;;;4936411;29;20420;-72
2021/05/14 00:58:16;;;;;;;1.63;1.20;;;;;;;;;;4936410;29;20469;-72
2021/05/14 01:00:42;;;;;;;1.40;1.10;;;;;;;;;;4936354;29;20848;-72
2021/05/14 01:06:11;;;;;;;1.40;1.30;;;;;;;;;;4936342;29;20950;-72
2021/05/14 01:08:37;;;;;;;1.60;1.20;;;;;;;;;;4936210;29;20413;-72
2021/05/14 01:11:03;;;;;;;1.37;1.27;;;;;;;;;;4936020;29;20428;-72
2021/05/14 01:13:30;;;;;;;2.73;1.10;;;;;;;;;;4936106;29;20424;-72
2021/05/14 01:15:56;;;;;;;1.00;1.00;;;;;;;;;;4936504;29;20734;-72
2021/05/14 01:21:26;;;;;;;1.30;1.10;;;;;;;;;;4936207;29;20416;-72
2021/05/14 01:23:52;;;;;;;2.53;1.10;;;;;;;;;;4935848;29;20872;-72
2021/05/14 01:26:19;;;;;;;1.10;1.00;;;;;;;;;;4935264;29;20425;-72
2021/05/14 01:28:46;;;;;;;1.30;1.20;;;;;;;;;;4936155;29;20896;-72
2021/05/14 01:31:12;;;;;;;2.10;1.27;;;;;;;;;;4936040;29;20477;-74
2021/05/14 01:33:38;;;;;;;1.20;1.10;;;;;;;;;;4936146;29;20791;-72
2021/05/14 01:36:05;;;;;;;3.00;1.00;;;;;;;;;;4936070;29;20826;-73
2021/05/14 01:38:31;;;;;;;1.23;1.10;;;;;;;;;;4935713;29;20895;-72
2021/05/14 01:40:57;;;;;;;1.10;1.00;;;;;;;;;;4935372;29;20426;-71
2021/05/14 01:43:23;;;;;;;1.50;1.00;;;;;;;;;;4936026;29;20443;-72
2021/05/14 01:45:49;;;;;;;1.03;0.90;;;;;;;;;;4935799;29;20508;-73
2021/05/14 01:51:19;;;;;;;1.17;1.07;;;;;;;;;;4936673;29;20464;-73
2021/05/14 01:53:45;;;;;;;0.80;0.80;;;;;;;;;;4935418;29;20582;-72
2021/05/14 01:56:11;;;;;;;0.90;0.90;;;;;;;;;;4935586;29;20907;-73
2021/05/14 01:58:38;;;;;;;4.57;1.67;;;;;;;;;;4935589;29;20464;-73
2021/05/14 02:01:04;;;;;;;1.10;1.00;;;;;;;;;;4935634;29;20427;-73
2021/05/14 02:06:35;;;;;;;1.17;0.90;;;;;;;;;;4935650;29;20476;-72
2021/05/14 02:09:01;;;;;;;2.07;1.33;;;;;;;;;;4935376;29;20515;-73
2021/05/14 02:11:27;;;;;;;1.43;1.10;;;;;;;;;;4935109;29;20559;-73
2021/05/14 02:13:53;;;;;;;1.90;1.37;;;;;;;;;;4935420;29;20821;-73
2021/05/14 02:16:20;;;;;;;1.17;1.07;;;;;;;;;;4935515;29;20468;-73
2021/05/14 02:21:49;;;;;;;1.33;1.23;;;;;;;;;;4935524;29;20460;-74
2021/05/14 02:24:15;;;;;;;1.30;1.07;;;;;;;;;;4935168;29;20477;-73
2021/05/14 02:26:41;;;;;;;1.80;1.13;;;;;;;;;;4935430;29;20457;-74
2021/05/14 02:29:07;;;;;;;2.03;1.60;;;;;;;;;;4935425;29;20503;-72
2021/05/14 02:31:33;;;;;;;1.10;1.00;;;;;;;;;;4935266;29;20519;-73
2021/05/14 02:37:03;;;;;;;1.40;1.30;;;;;;;;;;4936839;29;20460;-73
2021/05/14 02:39:29;;;;;;;1.10;0.90;;;;;;;;;;4939070;29;20408;-72
2021/05/14 02:41:55;;;;;;;2.40;1.13;;;;;;;;;;4939235;29;20507;-73
2021/05/14 02:44:21;;;;;;;1.80;1.53;;;;;;;;;;4939329;29;20429;-72
2021/05/14 02:46:47;;;;;;;7.43;1.40;;;;;;;;;;4939047;29;20420;-73
2021/05/14 02:52:17;;;;;;;1.63;1.40;;;;;;;;;;4938903;29;20478;-72
2021/05/14 02:54:43;;;;;;;1.40;1.30;;;;;;;;;;4938404;29;20476;-73
2021/05/14 02:57:09;;;;;;;2.00;0.97;;;;;;;;;;4938529;29;20907;-72
2021/05/14 02:59:35;;;;;;;1.67;1.37;;;;;;;;;;4938869;29;20424;-72
2021/05/14 03:02:01;;;;;;;1.33;1.00;;;;;;;;;;4936914;29;20773;-73
2021/05/14 03:04:27;;;;;;;1.07;1.07;;;;;;;;;;4938592;29;20484;-73
2021/05/14 03:06:53;;;;;;;1.20;1.10;;;;;;;;;;4938695;29;20432;-74
2021/05/14 03:09:19;;;;;;;1.33;1.00;;;;;;;;;;4937037;29;20431;-72
2021/05/14 03:11:45;;;;;;;1.43;1.33;;;;;;;;;;4938403;29;20888;-73
2021/05/14 03:14:11;;;;;;;1.13;1.03;;;;;;;;;;4938392;29;20413;-73
2021/05/14 03:16:37;;;;;;;1.80;1.50;;;;;;;;;;4938388;29;20490;-74
2021/05/14 03:22:07;;;;;;;1.57;1.47;;;;;;;;;;4938294;29;20476;-72
2021/05/14 03:24:33;;;;;;;1.60;1.20;;;;;;;;;;4937683;29;20927;-71
2021/05/14 03:26:59;;;;;;;2.70;1.10;;;;;;;;;;4938288;29;20570;-72
2021/05/14 03:29:25;;;;;;;1.63;0.93;;;;;;;;;;4938134;29;20475;-72
2021/05/14 03:31:51;;;;;;;1.57;1.40;;;;;;;;;;4938101;29;20959;-71
2021/05/14 03:37:20;;;;;;;1.03;0.93;;;;;;;;;;4938032;29;20455;-73
2021/05/14 03:39:50;;;;;;;1.47;1.37;;;;;;;;;;4937804;29;20420;-73
2021/05/14 03:42:23;;;;;;;3.43;1.20;;;;;;;;;;4938020;29;20902;-72
2021/05/14 03:44:49;;;;;;;1.60;0.97;;;;;;;;;;4937583;29;20491;-72
2021/05/14 03:47:16;;;;;;;1.20;1.10;;;;;;;;;;4940259;29;20419;-72
2021/05/14 03:52:46;;;;;;;1.83;1.13;;;;;;;;;;4937780;29;20475;-72
2021/05/14 03:55:12;;;;;;;3.10;1.20;;;;;;;;;;4937500;29;20480;-72
2021/05/14 03:57:38;;;;;;;1.50;1.40;;;;;;;;;;4938021;29;20859;-73
2021/05/14 04:00:05;;;;;;;1.77;1.13;;;;;;;;;;4936358;29;20421;-72
2021/05/14 04:08:19;;;;;;;1.20;1.10;;;;;;;;;;4937432;29;20408;-72
2021/05/14 04:11:06;;;;;;;2.43;1.00;;;;;;;;;;4937350;29;20915;-73
2021/05/14 04:16:17;;;;;;;1.37;1.03;;;;;;;;;;4937251;29;20484;-73
2021/05/14 04:18:43;;;;;;;1.50;1.27;;;;;;;;;;4937125;29;20440;-72
2021/05/14 04:21:09;;;;;;;1.60;1.40;;;;;;;;;;4937259;29;20433;-73
2021/05/14 04:23:35;;;;;;;1.40;1.27;;;;;;;;;;4937266;29;20511;-73
2021/05/14 04:26:01;;;;;;;1.50;1.40;;;;;;;;;;4936884;29;20950;-73
2021/05/14 04:28:28;;;;;;;4.03;1.80;;;;;;;;;;4937029;29;20435;-72
2021/05/14 04:30:53;;;;;;;3.50;1.40;;;;;;;;;;4935889;29;20436;-73
2021/05/14 04:33:20;;;;;;;1.63;1.53;;;;;;;;;;4936875;29;20479;-73
2021/05/14 04:35:46;;;;;;;4.70;1.67;;;;;;;;;;4937196;29;20449;-73
2021/05/14 04:38:12;;;;;;;3.93;2.20;;;;;;;;;;4936944;29;20417;-74
2021/05/14 04:40:38;;;;;;;2.93;1.70;;;;;;;;;;4937066;29;20807;-74
2021/05/14 04:43:04;;;;;;;2.70;2.13;;;;;;;;;;4935683;29;20440;-72
2021/05/14 04:45:30;;;;;;;1.70;1.60;;;;;;;;;;4936800;29;20428;-74
2021/05/14 04:47:57;;;;;;;2.03;1.30;;;;;;;;;;4936736;29;20522;-73
2021/05/14 04:50:23;;;;;;;2.73;1.77;;;;;;;;;;4936894;29;20497;-73
2021/05/14 04:52:49;;;;;;;2.17;1.47;;;;;;;;;;4936509;29;20502;-72
2021/05/14 04:55:16;;;;;;;1.50;1.40;;;;;;;;;;4936244;29;20472;-71
2021/05/14 04:57:42;;;;;;;1.63;1.40;;;;;;;;;;4935290;29;20437;-72
2021/05/14 05:00:08;;;;;;;1.20;1.10;;;;;;;;;;4936323;29;20448;-72
2021/05/14 05:02:36;;;;;;;3.90;1.63;;;;;;;;;;4935986;29;20423;-72
2021/05/14 05:08:06;;;;;;;3.73;1.60;;;;;;;;;;4936419;29;20468;-72
2021/05/14 05:10:32;;;;;;;1.53;1.43;;;;;;;;;;4935956;29;20464;-72
2021/05/14 05:12:58;;;;;;;1.33;1.23;;;;;;;;;;4935867;29;20974;-72
2021/05/14 05:15:24;;;;;;;1.43;1.33;;;;;;;;;;4936103;29;20449;-73
2021/05/14 05:17:50;;;;;;;1.67;1.10;;;;;;;;;;4935944;29;20519;-71
2021/05/14 05:23:20;;;;;;;2.93;1.50;;;;;;;;;;4935501;29;20523;-73
2021/05/14 05:25:46;;;;;;;2.33;1.43;;;;;;;;;;4935626;29;20891;-73
2021/05/14 05:28:12;;;;;;;1.53;1.37;;;;;;;;;;4935608;29;20420;-73
2021/05/14 05:30:38;;;;;;;1.87;1.67;;;;;;;;;;4934465;29;20504;-72
2021/05/14 05:33:04;;;;;;;1.93;1.40;;;;;;;;;;4935783;29;20480;-72
2021/05/14 05:38:33;;;;;;;1.80;1.23;;;;;;;;;;4935347;29;20419;-74
2021/05/14 05:40:59;;;;;;;2.47;1.30;;;;;;;;;;4935055;29;20420;-72
2021/05/14 05:43:25;;;;;;;1.17;0.93;;;;;;;;;;4935078;29;20476;-72
2021/05/14 05:45:51;;;;;;;1.10;0.90;;;;;;;;;;4934076;29;20448;-73
2021/05/14 05:48:18;;;;;;;1.23;0.83;;;;;;;;;;4935494;29;20460;-72
2021/05/14 05:53:47;;;;;;;2.20;1.00;;;;;;;;;;4934924;29;20493;-72
2021/05/14 05:56:13;;;;;;;3.23;0.90;;;;;;;;;;4935330;29;20416;-71
2021/05/14 05:58:39;;;;;;;1.10;1.00;;;;;;;;;;4935214;29;20428;-72
2021/05/14 06:01:05;;;;;;;1.13;0.50;;;;;;;;;;4935290;29;20515;-71
2021/05/14 06:03:31;;;;;;;0.93;0.80;;;;;;;;;;4935326;29;20428;-72
2021/05/14 06:09:01;;;;;;;0.87;0.80;;;;;;;;;;4934768;29;20426;-71
2021/05/14 06:11:27;;;;;;;0.87;0.83;;;;;;;;;;4935548;29;20588;-72
2021/05/14 06:13:53;;;;;;;1.03;0.73;;;;;;;;;;4938725;29;21062;-71
2021/05/14 06:16:20;;;;;;;1.43;1.00;;;;;;;;;;4938900;29;20416;-72
2021/05/14 06:18:51;;;;;;;1.50;0.60;;;;;;;;;;4938696;29;20419;-71
2021/05/14 06:24:20;;;;;;;0.90;0.57;;;;;;;;;;4938361;29;20419;-70
2021/05/14 06:26:47;;;;;;;2.30;0.70;;;;;;;;;;4938633;29;20452;-71
2021/05/14 06:29:13;;;;;;;2.63;0.90;;;;;;;;;;4938505;29;20468;-72
2021/05/14 06:31:40;;;;;;;1.23;0.83;;;;;;;;;;4938214;29;20471;-72
2021/05/14 06:34:06;;;;;;;0.73;0.60;;;;;;;;;;4938223;29;20420;-73
2021/05/14 06:36:32;;;;;;;1.50;1.40;;;;;;;;;;4938139;29;20505;-71
2021/05/14 06:38:58;;;;;;;1.20;1.10;;;;;;;;;;4938168;29;20911;-72
2021/05/14 06:41:24;;;;;;;3.37;1.30;;;;;;;;;;4938253;29;20432;-71
2021/05/14 06:43:50;;;;;;;0.90;0.70;;;;;;;;;;4937627;29;20421;-71
2021/05/14 06:46:16;;;;;;;1.67;0.80;;;;;;;;;;4938101;29;20761;-71
2021/05/14 06:48:44;;;;;;;0.90;0.70;;;;;;;;;;4937839;29;20515;-71
2021/05/14 06:54:13;;;;;;;0.77;0.40;;;;;;;;;;4936232;29;21049;-71
2021/05/14 06:56:39;;;;;;;2.00;0.33;;;;;;;;;;4936929;29;20416;-72
2021/05/14 06:59:05;;;;;;;2.17;0.60;;;;;;;;;;4937038;29;20785;-71
2021/05/14 07:01:31;;;;;;;0.87;0.30;;;;;;;;;;4937123;29;20479;-70
2021/05/14 07:03:57;;;;;;;0.77;0.50;;;;;;;;;;4936653;29;20507;-71
2021/05/14 07:09:26;;;;;;;0.57;0.50;;;;;;;;;;4935760;29;20472;-71
2021/05/14 07:11:52;;;;;;;1.50;0.67;;;;;;;;;;4935993;29;20978;-71
2021/05/14 07:14:18;;;;;;;1.00;0.73;;;;;;;;;;4936373;29;20416;-71
2021/05/14 07:16:45;;;;;;;0.50;0.40;;;;;;;;;;4936727;29;20417;-71
2021/05/14 07:19:14;;;;;;;1.47;0.50;;;;;;;;;;4936290;29;20500;-71
2021/05/14 07:24:44;;;;;;;0.60;0.40;;;;;;;;;;4935100;29;20550;-71
2021/05/14 07:27:10;;;;;;;0.90;0.47;;;;;;;;;;4936381;29;20416;-70
2021/05/14 07:29:36;;;;;;;1.00;0.57;;;;;;;;;;4936585;29;20419;-71
2021/05/14 07:32:02;;;;;;;0.40;0.30;;;;;;;;;;4936546;29;20986;-71
2021/05/14 07:34:28;;;;;;;0.83;0.40;;;;;;;;;;4936324;29;20448;-71
2021/05/14 07:39:58;;;;;;;1.33;0.40;;;;;;;;;;4934436;29;20423;-71
2021/05/14 07:42:24;;;;;;;1.53;0.60;;;;;;;;;;4936402;29;20416;-71
2021/05/14 07:44:50;;;;;;;1.40;0.50;;;;;;;;;;4935666;29;20770;-70
2021/05/14 07:47:16;;;;;;;0.40;0.33;;;;;;;;;;4935687;29;20457;-71
2021/05/14 07:52:27;;;;;;;0.43;0.33;;;;;;;;;;4935216;29;20508;-71
2021/05/14 07:54:53;;;;;;;1.17;0.53;;;;;;;;;;4936045;29;20938;-70
2021/05/14 07:57:19;;;;;;;1.73;0.53;;;;;;;;;;4936113;29;20515;-70
2021/05/14 07:59:47;;;;;;;0.97;0.37;;;;;;;;;;4935507;29;20405;-70
2021/05/14 08:02:13;;;;;;;1.37;0.53;;;;;;;;;;4934299;29;20504;-70
2021/05/14 08:04:39;;;;;;;1.90;0.30;;;;;;;;;;4936013;29;20420;-70
2021/05/14 08:10:09;;;;;;;1.70;0.50;;;;;;;;;;4935621;29;20782;-70
2021/05/14 08:12:35;;;;;;;0.90;0.40;;;;;;;;;;4934943;29;20827;-71
2021/05/14 08:15:02;;;;;;;0.63;0.60;;;;;;;;;;4935020;29;20460;-71
2021/05/14 08:17:28;;;;;;;2.90;0.50;;;;;;;;;;4935323;29;20416;-72
2021/05/14 08:19:54;;;;;;;2.10;0.40;;;;;;;;;;4935214;29;20416;-72
2021/05/14 08:25:24;;;;;;;0.40;0.30;;;;;;;;;;4935291;29;20432;-70
2021/05/14 08:27:50;;;;;;;1.53;0.40;;;;;;;;;;4935646;29;20918;-69
2021/05/14 08:30:16;;;;;;;0.50;0.40;;;;;;;;;;4935403;29;20881;-70
2021/05/14 08:32:42;;;;;;;1.80;0.30;;;;;;;;;;4934889;29;20846;-70
2021/05/14 08:35:09;;;;;;;0.80;0.50;;;;;;;;;;4935249;29;20428;-71
2021/05/14 08:40:40;;;;;;;0.50;0.30;;;;;;;;;;4935623;29;20488;-72
2021/05/14 08:43:06;;;;;;;2.03;0.70;;;;;;;;;;4934804;29;20421;-74
2021/05/14 08:45:32;;;;;;;1.10;0.80;;;;;;;;;;4934916;29;20423;-71
2021/05/14 08:47:59;;;;;;;0.63;0.50;;;;;;;;;;4935189;29;20899;-71
2021/05/14 08:50:28;;;;;;;0.70;0.40;;;;;;;;;;4934854;29;20417;-71
2021/05/14 08:52:55;;;;;;;0.63;0.50;;;;;;;;;;4934763;29;20559;-71
2021/05/14 08:55:24;;;;;;;1.10;0.30;;;;;;;;;;4934313;29;20468;-72
2021/05/14 08:57:50;;;;;;;1.80;0.50;;;;;;;;;;4934815;29;20425;-74
2021/05/14 09:00:16;;;;;;;1.00;0.40;;;;;;;;;;4934552;29;20468;-72
2021/05/14 09:02:42;;;;;;;0.90;0.53;;;;;;;;;;4934631;29;20496;-71
2021/05/14 09:05:25;;;;;;;0.70;0.47;;;;;;;;;;4934292;29;20976;-71
2021/05/14 09:10:55;;;;;;;0.90;0.47;;;;;;;;;;4934163;29;20419;-72
2021/05/14 09:13:21;;;;;;;1.97;0.80;;;;;;;;;;4934157;29;20464;-73
2021/05/14 09:15:47;;;;;;;0.90;0.50;;;;;;;;;;4934314;29;20412;-72
2021/05/14 09:18:21;;;;;;;1.37;0.57;;;;;;;;;;4935231;29;20516;-71
2021/05/14 09:20:48;;;;;;;2.30;0.60;;;;;;;;;;4941685;29;20443;-74
2021/05/14 09:23:17;;;;;;;1.23;0.50;;;;;;;;;;4937015;29;20424;-72
2021/05/14 09:25:50;;;;;;;1.40;0.60;;;;;;;;;;4935254;29;20416;-72
2021/05/14 09:28:26;;;;;;;1.90;0.70;;;;;;;;;;4935067;29;20458;-72
2021/05/14 09:31:01;;;;;;;0.60;0.50;;;;;;;;;;4935241;29;20808;-71
2021/05/14 09:33:27;;;;;;;0.60;0.60;;;;;;;;;;4933759;29;21178;-72
2021/05/14 09:36:00;;;;;;;1.20;0.60;;;;;;;;;;4934993;29;20417;-71
2021/05/14 09:38:26;;;;;;;0.93;0.40;;;;;;;;;;4934669;29;20486;-72
2021/05/14 09:40:53;;;;;;;0.90;0.40;;;;;;;;;;4934799;29;20420;-72
2021/05/14 09:43:20;;;;;;;1.20;0.43;;;;;;;;;;4934676;29;20488;-72
2021/05/14 09:45:46;;;;;;;0.63;0.50;;;;;;;;;;4934888;29;20779;-73
2021/05/14 09:48:16;;;;;;;0.90;0.40;;;;;;;;;;4934581;29;20425;-71
2021/05/14 09:57:16;;;;;;;1.47;0.50;;;;;;;;;;4934566;29;20419;-72
2021/05/14 09:59:46;;;;;;;1.57;0.37;;;;;;;;;;4934692;29;20499;-71
2021/05/14 10:02:45;;;;;;;1.37;1.10;;;;;;;;;;4934451;29;20496;-73
2021/05/14 10:05:12;;;;;;;0.60;0.40;;;;;;;;;;4912962;29;20444;-73
2021/05/14 10:07:41;;;;;;;2.57;0.70;;;;;;;;;;4932943;29;20426;-71
2021/05/14 10:10:09;;;;;;;0.70;0.50;;;;;;;;;;4933906;29;20400;-72
2021/05/14 10:12:35;;;;;;;1.10;0.40;;;;;;;;;;4934337;29;20464;-71
2021/05/14 10:15:02;;;;;;;0.80;0.47;;;;;;;;;;4933596;29;20423;-71
2021/05/14 10:17:29;;;;;;;0.40;0.30;;;;;;;;;;4933257;29;20922;-72
2021/05/14 10:19:55;;;;;;;2.73;0.50;;;;;;;;;;4933281;29;20419;-71
2021/05/14 10:22:25;;;;;;;1.20;0.53;;;;;;;;;;4933419;29;20412;-72
2021/05/14 10:24:57;;;;;;;3.10;1.00;;;;;;;;;;4931741;29;20519;-71
2021/05/14 10:27:24;;;;;;;1.90;0.60;;;;;;;;;;4933277;29;20412;-72
2021/05/14 10:29:52;;;;;;;0.60;0.50;;;;;;;;;;4933451;29;20421;-71
2021/05/14 10:32:39;;;;;;;1.60;0.50;;;;;;;;;;4933011;29;20631;-72
2021/05/14 10:35:05;;;;;;;1.03;0.63;;;;;;;;;;4926326;29;20511;-71
2021/05/14 10:37:47;;;;;;;1.10;0.57;;;;;;;;;;4932256;29;20433;-72
2021/05/14 10:40:31;;;;;;;1.23;0.50;;;;;;;;;;4933295;29;20415;-72
2021/05/14 10:42:58;;;;;;;0.60;0.40;;;;;;;;;;4933362;29;20437;-71
2021/05/14 10:45:33;;;;;;;0.80;0.50;;;;;;;;;;4931870;29;20440;-71
2021/05/14 10:47:59;;;;;;;1.70;0.40;;;;;;;;;;4933348;29;20451;-69
2021/05/14 10:50:36;;;;;;;1.80;0.50;;;;;;;;;;4933299;29;20567;-72
2021/05/14 10:53:26;;;;;;;1.27;0.43;;;;;;;;;;4931692;29;20986;-72
2021/05/14 10:55:53;;;;;;;0.50;0.50;;;;;;;;;;4933305;29;20435;-71
2021/05/14 10:58:38;;;;;;;1.37;0.60;;;;;;;;;;4934948;29;20412;-72
2021/05/14 11:01:04;;;;;;;0.77;0.50;;;;;;;;;;4936197;29;20441;-72
2021/05/14 11:03:34;;;;;;;0.70;0.60;;;;;;;;;;4937461;29;20416;-73
2021/05/14 11:09:05;;;;;;;3.17;0.60;;;;;;;;;;4937162;29;20415;-72
2021/05/14 11:11:31;;;;;;;0.97;0.60;;;;;;;;;;4937553;29;20856;-71
2021/05/14 11:14:12;;;;;;;1.00;0.50;;;;;;;;;;4937809;29;20491;-71
2021/05/14 11:16:40;;;;;;;0.70;0.30;;;;;;;;;;4938074;29;20416;-71
2021/05/14 11:19:21;;;;;;;3.30;0.80;;;;;;;;;;4937938;29;20830;-71
2021/05/14 11:24:52;;;;;;;1.17;0.70;;;;;;;;;;4937764;29;20472;-71
2021/05/14 11:27:19;;;;;;;1.00;0.60;;;;;;;;;;4937707;29;20512;-70
2021/05/14 11:29:53;;;;;;;0.93;0.60;;;;;;;;;;4937611;29;20793;-71
2021/05/14 11:32:28;;;;;;;2.10;0.70;;;;;;;;;;4937512;29;20486;-70
2021/05/14 11:34:55;;;;;;;0.67;0.60;;;;;;;;;;4937962;29;20428;-71
2021/05/14 11:40:29;;;;;;;0.77;0.50;;;;;;;;;;4941607;29;20419;-71
2021/05/14 11:43:00;;;;;;;1.50;0.87;;;;;;;;;;4937848;29;20413;-71
2021/05/14 11:45:31;;;;;;;1.10;0.57;;;;;;;;;;4937374;29;20487;-72
2021/05/14 11:47:58;;;;;;;1.20;0.40;;;;;;;;;;4937402;29;20437;-72
2021/05/14 11:50:24;;;;;;;1.00;0.60;;;;;;;;;;4937209;29;20416;-71
2021/05/14 11:55:54;;;;;;;0.90;0.60;;;;;;;;;;4937266;29;20815;-73
2021/05/14 11:58:20;;;;;;;2.17;0.63;;;;;;;;;;4937275;29;20469;-72
2021/05/14 12:00:49;;;;;;;1.37;0.67;;;;;;;;;;4937198;29;20903;-72
2021/05/14 12:03:19;;;;;;;1.07;0.67;;;;;;;;;;4937473;29;20425;-72
2021/05/14 12:05:46;;;;;;;0.73;0.53;;;;;;;;;;4937098;29;20416;-71
2021/05/14 12:11:17;;;;;;;0.60;0.57;;;;;;;;;;4936628;29;20464;-74
2021/05/14 12:13:45;;;;;;;1.63;0.40;;;;;;;;;;4936981;29;20435;-73
2021/05/14 12:16:12;;;;;;;0.70;0.50;;;;;;;;;;4936941;29;20409;-72
2021/05/14 12:18:44;;;;;;;0.80;0.50;;;;;;;;;;4937214;29;20837;-71
2021/05/14 12:21:15;;;;;;;2.20;0.50;;;;;;;;;;4936749;29;20409;-72
2021/05/14 12:26:46;;;;;;;0.70;0.50;;;;;;;;;;4936964;29;20427;-72
2021/05/14 12:29:22;;;;;;;2.27;1.70;;;;;;;;;;4936851;29;20431;-70
2021/05/14 12:31:58;;;;;;;0.50;0.33;;;;;;;;;;4936719;29;20488;-71
2021/05/14 12:34:24;;;;;;;1.57;0.40;;;;;;;;;;4936584;29;20849;-70
2021/05/14 12:43:06;;;;;;;2.63;0.53;;;;;;;;;;4936303;29;20468;-71
2021/05/14 12:45:35;;;;;;;1.07;0.50;;;;;;;;;;4935948;29;20506;-71
2021/05/14 12:48:01;;;;;;;0.80;0.40;;;;;;;;;;4935826;29;20417;-71
2021/05/14 12:50:27;;;;;;;0.50;0.40;;;;;;;;;;4935834;29;20439;-72
2021/05/14 12:52:53;;;;;;;0.60;0.40;;;;;;;;;;4935832;29;20593;-72
2021/05/14 12:55:20;;;;;;;2.50;1.00;;;;;;;;;;4935590;29;20542;-71
2021/05/14 12:57:49;;;;;;;1.33;0.70;;;;;;;;;;4935900;29;21021;-71
2021/05/14 13:00:17;;;;;;;1.53;0.83;;;;;;;;;;4936178;29;20824;-72
2021/05/14 13:03:03;;;;;;;1.00;0.47;;;;;;;;;;4936700;29;20492;-72
2021/05/14 13:05:42;;;;;;;1.43;0.30;;;;;;;;;;4936582;29;20475;-72
2021/05/14 13:08:08;;;;;;;0.50;0.47;;;;;;;;;;4935058;29;20492;-71
2021/05/14 13:10:34;;;;;;;1.27;0.50;;;;;;;;;;4936430;29;20460;-72
2021/05/14 13:13:00;;;;;;;1.00;0.53;;;;;;;;;;4936203;29;20571;-73
2021/05/14 13:15:26;;;;;;;4.57;0.60;;;;;;;;;;4936127;29;20421;-72
2021/05/14 13:17:53;;;;;;;1.60;0.47;;;;;;;;;;4936165;29;20560;-72
2021/05/14 13:20:19;;;;;;;1.73;0.50;;;;;;;;;;4936005;29;20587;-72
2021/05/14 13:22:45;;;;;;;0.50;0.30;;;;;;;;;;4936016;29;20481;-71
2021/05/14 13:25:11;;;;;;;1.07;0.57;;;;;;;;;;4935768;29;20419;-81
2021/05/14 13:27:41;;;;;;;3.03;2.20;;;;;;;;;;4932865;29;20416;-78
2021/05/14 13:30:09;;;;;;;0.90;0.90;;;;;;;;;;4935054;29;20774;-78
2021/05/14 13:32:39;;;;;;;1.13;0.83;;;;;;;;;;4935300;29;20463;-78
2021/05/14 13:35:06;;;;;;;1.73;0.80;;;;;;;;;;4935487;29;20425;-78
2021/05/14 13:37:34;;;;;;;2.67;0.60;;;;;;;;;;4935264;29;20428;-77
2021/05/14 13:40:03;;;;;;;0.70;0.40;;;;;;;;;;4934873;29;20472;-78
2021/05/14 13:42:31;;;;;;;2.43;1.60;;;;;;;;;;4935273;29;20499;-79
2021/05/14 13:44:58;;;;;;;6.77;6.07;;;;;;;;;;4935146;29;20425;-78
2021/05/14 13:47:28;;;;;;;23.40;21.30;;;;;;;;;;4935515;29;20429;-79
2021/05/14 13:49:57;;;;;;;582.43;516.60;;;;;;;;;;4935151;29;20492;-78
2021/05/14 13:52:29;;;;;;;210.37;176.27;;;;;;;;;;4935410;29;20476;-78
2021/05/14 13:58:02;;;;;;;3.83;1.27;;;;;;;;;;4934671;29;20779;-78
2021/05/14 14:00:29;;;;;;;2.90;1.30;;;;;;;;;;4939405;29;20420;-77
2021/05/14 14:03:02;;;;;;;1.50;1.10;;;;;;;;;;4940607;29;20452;-79
2021/05/14 14:05:29;;;;;;;1.63;1.53;;;;;;;;;;4935420;29;20428;-79
2021/05/14 14:07:59;;;;;;;2.23;1.83;;;;;;;;;;4935396;29;20413;-80
2021/05/14 14:10:28;;;;;;;2.10;1.90;;;;;;;;;;4935060;29;20519;-79
2021/05/14 14:13:00;;;;;;;0.97;0.67;;;;;;;;;;4935282;29;20909;-78
2021/05/14 14:15:27;;;;;;;1.83;1.20;;;;;;;;;;4934815;29;20420;-77
2021/05/14 14:17:54;;;;;;;0.50;0.40;;;;;;;;;;4934838;29;20499;-77
2021/05/14 14:20:24;;;;;;;0.60;0.40;;;;;;;;;;4935004;29;20500;-78
2021/05/14 14:22:52;;;;;;;0.60;0.47;;;;;;;;;;4935070;29;20412;-79
2021/05/14 14:25:21;;;;;;;1.93;0.40;;;;;;;;;;4934824;29;20409;-78
2021/05/14 14:27:50;;;;;;;1.67;0.60;;;;;;;;;;4934942;29;20475;-77
2021/05/14 14:30:20;;;;;;;0.80;0.40;;;;;;;;;;4934874;29;20419;-79
2021/05/14 14:32:53;;;;;;;6.13;3.93;;;;;;;;;;4936048;29;20476;-79
2021/05/14 14:35:20;;;;;;;1.53;0.40;;;;;;;;;;4938837;29;20416;-78
2021/05/14 14:43:40;;;;;;;0.90;0.50;;;;;;;;;;4938789;29;20776;-79
2021/05/14 14:46:07;;;;;;;2.20;0.83;;;;;;;;;;4938734;29;20440;-78
2021/05/14 14:48:34;;;;;;;0.90;0.60;;;;;;;;;;4938710;29;20444;-78
2021/05/14 14:51:01;;;;;;;0.80;0.47;;;;;;;;;;4938171;29;20412;-77
2021/05/14 14:53:31;;;;;;;0.80;0.50;;;;;;;;;;4937313;29;20472;-79
2021/05/14 14:55:58;;;;;;;1.13;0.47;;;;;;;;;;4937911;29;20576;-78
2021/05/14 14:58:27;;;;;;;1.03;0.60;;;;;;;;;;4937737;29;20436;-77
2021/05/14 15:00:57;;;;;;;1.93;0.70;;;;;;;;;;4938038;29;20484;-77
2021/05/14 15:03:23;;;;;;;0.50;0.50;;;;;;;;;;4937615;29;20439;-76
2021/05/14 15:05:53;;;;;;;1.17;0.40;;;;;;;;;;4937994;29;20424;-78
2021/05/14 15:08:21;;;;;;;1.30;0.60;;;;;;;;;;4938221;29;20428;-79
2021/05/14 15:10:48;;;;;;;0.97;0.40;;;;;;;;;;4938195;29;20455;-77
2021/05/14 15:13:16;;;;;;;0.50;0.47;;;;;;;;;;4937962;29;20519;-73
2021/05/14 15:15:47;;;;;;;1.93;0.70;;;;;;;;;;4937870;29;20420;-73
2021/05/14 15:18:18;;;;;;;0.70;0.50;;;;;;;;;;4937716;29;20420;-75
2021/05/14 15:20:48;;;;;;;0.70;0.30;;;;;;;;;;4938152;29;20421;-80
2021/05/14 15:29:03;;;;;;;1.40;0.60;;;;;;;;;;4937901;29;20412;-81
2021/05/14 15:31:29;;;;;;;1.17;0.53;;;;;;;;;;4935480;29;20448;-79
2021/05/14 15:33:58;;;;;;;1.83;0.97;;;;;;;;;;4935919;29;20432;-81
2021/05/14 15:36:24;;;;;;;0.70;0.53;;;;;;;;;;4935945;29;20413;-77
2021/05/14 15:38:50;;;;;;;1.10;0.40;;;;;;;;;;4935062;29;20482;-78
2021/05/14 15:41:16;;;;;;;0.60;0.57;;;;;;;;;;4937682;29;20423;-80
2021/05/14 15:43:42;;;;;;;0.80;0.40;;;;;;;;;;4937455;29;20425;-78
2021/05/14 15:46:08;;;;;;;1.70;0.53;;;;;;;;;;4936372;29;20445;-79
2021/05/14 15:48:40;;;;;;;0.83;0.37;;;;;;;;;;4937061;29;20459;-80
2021/05/14 15:51:07;;;;;;;0.97;0.50;;;;;;;;;;4937363;29;20574;-80
2021/05/14 15:59:40;;;;;;;1.97;0.40;;;;;;;;;;4932996;29;20841;-80
2021/05/14 16:02:06;;;;;;;2.00;0.30;;;;;;;;;;4930978;29;20448;-80
2021/05/14 16:04:32;;;;;;;3.00;0.83;;;;;;;;;;4932219;29;20456;-80
2021/05/14 16:06:59;;;;;;;2.77;2.53;;;;;;;;;;4933087;29;20424;-79
2021/05/14 16:09:28;;;;;;;1.00;0.90;;;;;;;;;;4936203;29;20432;-83
2021/05/14 16:11:57;;;;;;;2.10;1.73;;;;;;;;;;4934787;29;20459;-79
2021/05/14 16:14:23;;;;;;;2.23;1.20;;;;;;;;;;4935944;29;20433;-82
2021/05/14 16:17:06;;;;;;;1.10;1.00;;;;;;;;;;4934646;29;20428;-81
2021/05/14 16:19:35;;;;;;;0.77;0.50;;;;;;;;;;4937333;29;20421;-86
2021/05/14 16:22:01;;;;;;;0.60;0.60;;;;;;;;;;4937819;29;20412;-77
2021/05/14 16:24:27;;;;;;;0.80;0.60;;;;;;;;;;4942002;29;20429;-83
2021/05/14 16:26:53;;;;;;;0.90;0.70;;;;;;;;;;4936662;29;20927;-82
2021/05/14 16:29:19;;;;;;;2.87;1.97;;;;;;;;;;4934607;29;20911;-83
2021/05/14 16:31:45;;;;;;;0.90;0.70;;;;;;;;;;4934402;29;20529;-82
2021/05/14 16:34:11;;;;;;;1.13;0.50;;;;;;;;;;4934124;29;20469;-80
2021/05/14 16:36:38;;;;;;;1.10;0.53;;;;;;;;;;4933429;29;20828;-83
2021/05/14 16:39:04;;;;;;;2.70;0.80;;;;;;;;;;4934015;29;20896;-81
2021/05/14 16:41:30;;;;;;;1.13;0.60;;;;;;;;;;4934115;29;20420;-82
2021/05/14 16:43:56;;;;;;;4.63;2.00;;;;;;;;;;4933857;29;20433;-81
2021/05/14 16:46:22;;;;;;;3.43;2.20;;;;;;;;;;4932470;29;20424;-82
2021/05/14 16:48:48;;;;;;;3.13;1.93;;;;;;;;;;4934209;29;20846;-83
2021/05/14 16:51:14;;;;;;;2.87;1.57;;;;;;;;;;4934251;29;20507;-82
2021/05/14 16:53:40;;;;;;;1.03;0.33;;;;;;;;;;4931763;29;21062;-82
2021/05/14 16:59:11;;;;;;;2.20;0.80;;;;;;;;;;4933940;29;20508;-82
2021/05/14 17:01:37;;;;;;;1.73;1.27;;;;;;;;;;4933963;29;20481;-84
2021/05/14 17:04:03;;;;;;;2.77;1.00;;;;;;;;;;4933795;29;20444;-80
2021/05/14 17:06:50;;;;;;;1.07;0.50;;;;;;;;;;4933232;29;20427;-78
2021/05/14 17:09:16;;;;;;;0.60;0.50;;;;;;;;;;4933419;29;20432;-83
2021/05/14 17:11:43;;;;;;;0.93;0.67;;;;;;;;;;4935260;29;20503;-88
2021/05/14 17:14:09;;;;;;;1.20;0.43;;;;;;;;;;4936006;29;20429;-85